sensor_id;sensor_type;location;lat;lon;timestamp;temperature;humidity
32753;DHT22;19121;52.428;10.816;2022-09-20T00:01:20;20.80;50.90
32753;DHT22;19121;52.428;10.816;2022-09-20T00:03:48;20.90;51.00
32753;DHT22;19121;52.428;10.816;2022-09-20T00:06:18;20.90;51.00
32753;DHT22;19121;52.428;10.816;2022-09-20T00:08:44;20.90;51.60
32753;DHT22;19121;52.428;10.816;2022-09-20T00:11:12;20.90;51.00
32753;DHT22;19121;52.428;10.816;2022-09-20T00:13:41;20.90;51.00
32753;DHT22;19121;52.428;10.816;2022-09-20T00:16:11;20.90;51.00
32753;DHT22;19121;52.428;10.816;2022-09-20T00:18:37;20.80;50.90
32753;DHT22;19121;52.428;10.816;2022-09-20T00:21:03;20.80;50.90
32753;DHT22;19121;52.428;10.816;2022-09-20T00:23:30;20.80;51.00
32753;DHT22;19121;52.428;10.816;2022-09-20T00:26:03;20.80;50.90
32753;DHT22;19121;52.428;10.816;2022-09-20T00:28:29;20.80;51.00
32753;DHT22;19121;52.428;10.816;2022-09-20T00:30:56;20.80;51.00
32753;DHT22;19121;52.428;10.816;2022-09-20T00:33:23;20.80;51.00
32753;DHT22;19121;52.428;10.816;2022-09-20T00:35:49;20.80;51.00
32753;DHT22;19121;52.428;10.816;2022-09-20T00:38:15;20.80;51.00
32753;DHT22;19121;52.428;10.816;2022-09-20T00:40:44;20.80;51.00
32753;DHT22;19121;52.428;10.816;2022-09-20T00:43:14;20.80;51.00
32753;DHT22;19121;52.428;10.816;2022-09-20T00:45:41;20.80;51.00
32753;DHT22;19121;52.428;10.816;2022-09-20T00:50:50;20.70;51.00
32753;DHT22;19121;52.428;10.816;2022-09-20T00:53:30;20.80;51.00
32753;DHT22;19121;52.428;10.816;2022-09-20T00:56:09;20.70;51.00
32753;DHT22;19121;52.428;10.816;2022-09-20T00:58:40;20.70;51.00
32753;DHT22;19121;52.428;10.816;2022-09-20T01:01:07;20.70;51.00
32753;DHT22;19121;52.428;10.816;2022-09-20T01:03:34;20.70;51.00
32753;DHT22;19121;52.428;10.816;2022-09-20T01:06:03;20.70;51.00
32753;DHT22;19121;52.428;10.816;2022-09-20T01:08:31;20.70;51.00
32753;DHT22;19121;52.428;10.816;2022-09-20T01:10:58;20.70;51.00
32753;DHT22;19121;52.428;10.816;2022-09-20T01:13:23;20.70;51.00
32753;DHT22;19121;52.428;10.816;2022-09-20T01:15:50;20.70;51.10
32753;DHT22;19121;52.428;10.816;2022-09-20T01:18:17;20.70;51.10
32753;DHT22;19121;52.428;10.816;2022-09-20T01:20:44;20.70;51.00
32753;DHT22;19121;52.428;10.816;2022-09-20T01:26:28;20.70;51.00
32753;DHT22;19121;52.428;10.816;2022-09-20T01:31:56;20.70;51.10
32753;DHT22;19121;52.428;10.816;2022-09-20T01:34:33;20.70;51.00
32753;DHT22;19121;52.428;10.816;2022-09-20T01:37:16;20.60;51.00
32753;DHT22;19121;52.428;10.816;2022-09-20T01:40:01;20.60;51.00
32753;DHT22;19121;52.428;10.816;2022-09-20T01:42:36;20.70;51.00
32753;DHT22;19121;52.428;10.816;2022-09-20T01:45:27;20.60;51.00
32753;DHT22;19121;52.428;10.816;2022-09-20T01:48:37;20.60;51.00
32753;DHT22;19121;52.428;10.816;2022-09-20T01:51:17;20.60;51.20
32753;DHT22;19121;52.428;10.816;2022-09-20T01:54:18;20.60;51.10
32753;DHT22;19121;52.428;10.816;2022-09-20T02:05:16;20.60;51.00
32753;DHT22;19121;52.428;10.816;2022-09-20T02:08:07;20.60;51.10
32753;DHT22;19121;52.428;10.816;2022-09-20T02:11:05;20.60;51.10
32753;DHT22;19121;52.428;10.816;2022-09-20T02:13:57;20.60;51.10
32753;DHT22;19121;52.428;10.816;2022-09-20T02:16:39;20.60;51.10
32753;DHT22;19121;52.428;10.816;2022-09-20T02:22:08;20.50;51.10
32753;DHT22;19121;52.428;10.816;2022-09-20T02:27:46;20.50;51.10
32753;DHT22;19121;52.428;10.816;2022-09-20T02:33:05;20.60;51.10
32753;DHT22;19121;52.428;10.816;2022-09-20T02:36:08;20.50;51.10
32753;DHT22;19121;52.428;10.816;2022-09-20T02:39:09;20.50;51.10
32753;DHT22;19121;52.428;10.816;2022-09-20T02:47:16;20.50;51.10
32753;DHT22;19121;52.428;10.816;2022-09-20T02:50:04;20.50;51.10
32753;DHT22;19121;52.428;10.816;2022-09-20T02:53:10;20.50;51.10
32753;DHT22;19121;52.428;10.816;2022-09-20T02:58:51;20.50;51.10
32753;DHT22;19121;52.428;10.816;2022-09-20T03:01:37;20.50;51.10
32753;DHT22;19121;52.428;10.816;2022-09-20T03:04:19;20.50;51.10
32753;DHT22;19121;52.428;10.816;2022-09-20T03:06:51;20.50;51.10
32753;DHT22;19121;52.428;10.816;2022-09-20T03:12:13;20.50;51.20
32753;DHT22;19121;52.428;10.816;2022-09-20T03:20:45;20.50;51.20
32753;DHT22;19121;52.428;10.816;2022-09-20T03:29:14;20.50;51.20
32753;DHT22;19121;52.428;10.816;2022-09-20T03:35:03;20.50;51.20
32753;DHT22;19121;52.428;10.816;2022-09-20T03:41:04;20.50;51.20
32753;DHT22;19121;52.428;10.816;2022-09-20T03:43:48;20.50;51.20
32753;DHT22;19121;52.428;10.816;2022-09-20T03:46:23;20.50;51.20
32753;DHT22;19121;52.428;10.816;2022-09-20T03:49:18;20.50;51.20
32753;DHT22;19121;52.428;10.816;2022-09-20T03:52:03;20.50;51.20
32753;DHT22;19121;52.428;10.816;2022-09-20T03:55:01;20.50;51.20
32753;DHT22;19121;52.428;10.816;2022-09-20T03:57:40;20.50;51.20
32753;DHT22;19121;52.428;10.816;2022-09-20T04:03:11;20.50;51.20
32753;DHT22;19121;52.428;10.816;2022-09-20T04:05:46;20.50;51.30
32753;DHT22;19121;52.428;10.816;2022-09-20T04:11:09;20.50;51.30
32753;DHT22;19121;52.428;10.816;2022-09-20T04:13:54;20.50;51.30
32753;DHT22;19121;52.428;10.816;2022-09-20T04:16:48;20.50;51.30
32753;DHT22;19121;52.428;10.816;2022-09-20T04:22:00;20.50;51.30
32753;DHT22;19121;52.428;10.816;2022-09-20T04:24:42;20.50;51.30
32753;DHT22;19121;52.428;10.816;2022-09-20T04:27:56;20.50;51.30
32753;DHT22;19121;52.428;10.816;2022-09-20T04:30:25;20.50;51.30
32753;DHT22;19121;52.428;10.816;2022-09-20T04:33:04;20.50;51.30
32753;DHT22;19121;52.428;10.816;2022-09-20T04:38:25;20.50;51.30
32753;DHT22;19121;52.428;10.816;2022-09-20T04:40:57;20.50;51.40
32753;DHT22;19121;52.428;10.816;2022-09-20T04:49:38;20.50;52.00
32753;DHT22;19121;52.428;10.816;2022-09-20T04:55:17;20.40;51.40
32753;DHT22;19121;52.428;10.816;2022-09-20T05:09:43;20.50;51.40
32753;DHT22;19121;52.428;10.816;2022-09-20T05:12:27;20.50;51.50
32753;DHT22;19121;52.428;10.816;2022-09-20T05:15:26;20.40;51.40
32753;DHT22;19121;52.428;10.816;2022-09-20T05:23:35;20.40;51.40
32753;DHT22;19121;52.428;10.816;2022-09-20T05:26:54;20.40;51.40
32753;DHT22;19121;52.428;10.816;2022-09-20T05:29:23;20.40;51.50
32753;DHT22;19121;52.428;10.816;2022-09-20T05:31:55;20.40;51.50
32753;DHT22;19121;52.428;10.816;2022-09-20T05:34:51;20.40;51.50
32753;DHT22;19121;52.428;10.816;2022-09-20T05:37:32;20.40;51.50
32753;DHT22;19121;52.428;10.816;2022-09-20T05:43:10;20.40;51.50
32753;DHT22;19121;52.428;10.816;2022-09-20T05:45:46;20.40;51.90
32753;DHT22;19121;52.428;10.816;2022-09-20T05:48:34;20.40;51.70
32753;DHT22;19121;52.428;10.816;2022-09-20T05:51:30;20.40;51.70
32753;DHT22;19121;52.428;10.816;2022-09-20T05:54:28;20.40;51.70
32753;DHT22;19121;52.428;10.816;2022-09-20T06:00:13;20.40;51.50
32753;DHT22;19121;52.428;10.816;2022-09-20T06:02:47;20.50;51.50
32753;DHT22;19121;52.428;10.816;2022-09-20T06:08:21;20.50;51.50
32753;DHT22;19121;52.428;10.816;2022-09-20T06:11:11;20.50;51.60
32753;DHT22;19121;52.428;10.816;2022-09-20T06:13:54;20.40;51.70
32753;DHT22;19121;52.428;10.816;2022-09-20T06:19:18;20.50;52.00
32753;DHT22;19121;52.428;10.816;2022-09-20T06:21:54;20.50;52.00
32753;DHT22;19121;52.428;10.816;2022-09-20T06:24:46;20.50;52.00
32753;DHT22;19121;52.428;10.816;2022-09-20T06:27:22;20.50;52.10
32753;DHT22;19121;52.428;10.816;2022-09-20T06:29:56;20.50;52.10
32753;DHT22;19121;52.428;10.816;2022-09-20T06:32:22;20.50;51.80
32753;DHT22;19121;52.428;10.816;2022-09-20T06:34:48;20.50;51.90
32753;DHT22;19121;52.428;10.816;2022-09-20T06:40:27;20.50;51.70
32753;DHT22;19121;52.428;10.816;2022-09-20T06:43:14;20.40;51.70
32753;DHT22;19121;52.428;10.816;2022-09-20T06:45:40;20.40;51.70
32753;DHT22;19121;52.428;10.816;2022-09-20T06:48:07;20.40;51.70
32753;DHT22;19121;52.428;10.816;2022-09-20T06:50:33;20.40;51.70
32753;DHT22;19121;52.428;10.816;2022-09-20T06:53:01;20.40;52.00
32753;DHT22;19121;52.428;10.816;2022-09-20T06:55:30;20.40;52.00
32753;DHT22;19121;52.428;10.816;2022-09-20T06:57:56;20.40;51.80
32753;DHT22;19121;52.428;10.816;2022-09-20T07:00:22;20.40;51.90
32753;DHT22;19121;52.428;10.816;2022-09-20T07:02:47;20.30;51.80
32753;DHT22;19121;52.428;10.816;2022-09-20T07:05:14;20.40;51.90
32753;DHT22;19121;52.428;10.816;2022-09-20T07:07:40;20.40;51.90
32753;DHT22;19121;52.428;10.816;2022-09-20T07:10:09;20.30;52.00
32753;DHT22;19121;52.428;10.816;2022-09-20T07:12:35;20.40;52.20
32753;DHT22;19121;52.428;10.816;2022-09-20T07:15:01;20.40;52.10
32753;DHT22;19121;52.428;10.816;2022-09-20T07:17:26;20.50;52.00
32753;DHT22;19121;52.428;10.816;2022-09-20T07:19:52;20.50;51.90
32753;DHT22;19121;52.428;10.816;2022-09-20T07:22:17;20.60;51.90
32753;DHT22;19121;52.428;10.816;2022-09-20T07:24:43;20.60;51.80
32753;DHT22;19121;52.428;10.816;2022-09-20T07:27:10;20.60;51.80
32753;DHT22;19121;52.428;10.816;2022-09-20T07:29:36;20.60;51.80
32753;DHT22;19121;52.428;10.816;2022-09-20T07:32:02;20.60;51.80
32753;DHT22;19121;52.428;10.816;2022-09-20T07:34:28;20.70;51.80
32753;DHT22;19121;52.428;10.816;2022-09-20T07:36:54;20.70;51.80
32753;DHT22;19121;52.428;10.816;2022-09-20T07:39:21;20.70;51.80
32753;DHT22;19121;52.428;10.816;2022-09-20T07:41:47;20.70;51.80
32753;DHT22;19121;52.428;10.816;2022-09-20T07:44:15;20.70;51.80
32753;DHT22;19121;52.428;10.816;2022-09-20T07:46:51;20.70;51.80
32753;DHT22;19121;52.428;10.816;2022-09-20T07:49:17;20.70;51.80
32753;DHT22;19121;52.428;10.816;2022-09-20T07:51:43;20.80;51.80
32753;DHT22;19121;52.428;10.816;2022-09-20T07:54:09;20.80;51.90
32753;DHT22;19121;52.428;10.816;2022-09-20T07:56:34;20.70;51.80
32753;DHT22;19121;52.428;10.816;2022-09-20T07:59:00;20.80;51.90
32753;DHT22;19121;52.428;10.816;2022-09-20T08:01:26;20.80;51.90
32753;DHT22;19121;52.428;10.816;2022-09-20T08:03:51;20.80;51.90
32753;DHT22;19121;52.428;10.816;2022-09-20T08:06:17;20.80;51.90
32753;DHT22;19121;52.428;10.816;2022-09-20T08:08:46;20.80;51.90
32753;DHT22;19121;52.428;10.816;2022-09-20T08:11:14;20.70;51.80
32753;DHT22;19121;52.428;10.816;2022-09-20T08:13:43;20.90;52.00
32753;DHT22;19121;52.428;10.816;2022-09-20T08:16:10;20.90;52.10
32753;DHT22;19121;52.428;10.816;2022-09-20T08:18:36;20.80;52.00
32753;DHT22;19121;52.428;10.816;2022-09-20T08:21:03;20.90;52.10
32753;DHT22;19121;52.428;10.816;2022-09-20T08:23:32;20.90;52.10
32753;DHT22;19121;52.428;10.816;2022-09-20T08:25:58;20.90;52.10
32753;DHT22;19121;52.428;10.816;2022-09-20T08:28:23;21.00;52.10
32753;DHT22;19121;52.428;10.816;2022-09-20T08:30:49;21.00;52.00
32753;DHT22;19121;52.428;10.816;2022-09-20T08:33:14;21.10;52.00
32753;DHT22;19121;52.428;10.816;2022-09-20T08:35:40;21.10;52.00
32753;DHT22;19121;52.428;10.816;2022-09-20T08:38:05;21.10;52.00
32753;DHT22;19121;52.428;10.816;2022-09-20T08:40:32;21.10;51.90
32753;DHT22;19121;52.428;10.816;2022-09-20T08:42:59;21.20;51.80
32753;DHT22;19121;52.428;10.816;2022-09-20T08:45:25;21.20;51.90
32753;DHT22;19121;52.428;10.816;2022-09-20T08:47:54;21.20;51.90
32753;DHT22;19121;52.428;10.816;2022-09-20T08:50:21;21.20;52.00
32753;DHT22;19121;52.428;10.816;2022-09-20T08:52:48;21.30;52.00
32753;DHT22;19121;52.428;10.816;2022-09-20T08:55:21;21.30;52.00
32753;DHT22;19121;52.428;10.816;2022-09-20T08:57:49;21.30;52.00
32753;DHT22;19121;52.428;10.816;2022-09-20T09:00:19;21.30;52.00
32753;DHT22;19121;52.428;10.816;2022-09-20T09:02:46;21.40;52.20
32753;DHT22;19121;52.428;10.816;2022-09-20T09:05:32;21.30;52.10
32753;DHT22;19121;52.428;10.816;2022-09-20T09:08:00;21.40;52.20
32753;DHT22;19121;52.428;10.816;2022-09-20T09:10:30;21.40;52.20
32753;DHT22;19121;52.428;10.816;2022-09-20T09:13:00;21.50;52.30
32753;DHT22;19121;52.428;10.816;2022-09-20T09:15:32;21.50;52.20
32753;DHT22;19121;52.428;10.816;2022-09-20T09:17:59;21.50;52.30
32753;DHT22;19121;52.428;10.816;2022-09-20T09:20:25;21.50;52.30
32753;DHT22;19121;52.428;10.816;2022-09-20T09:23:01;21.50;52.20
32753;DHT22;19121;52.428;10.816;2022-09-20T09:25:34;21.60;52.20
32753;DHT22;19121;52.428;10.816;2022-09-20T09:28:03;21.50;52.00
32753;DHT22;19121;52.428;10.816;2022-09-20T09:30:40;21.60;52.00
32753;DHT22;19121;52.428;10.816;2022-09-20T09:36:05;21.70;51.90
32753;DHT22;19121;52.428;10.816;2022-09-20T09:38:33;21.70;51.90
32753;DHT22;19121;52.428;10.816;2022-09-20T09:41:02;21.70;51.90
32753;DHT22;19121;52.428;10.816;2022-09-20T09:43:32;21.70;51.90
32753;DHT22;19121;52.428;10.816;2022-09-20T09:46:20;21.70;51.90
32753;DHT22;19121;52.428;10.816;2022-09-20T09:49:24;21.70;51.80
32753;DHT22;19121;52.428;10.816;2022-09-20T09:52:14;21.70;51.80
32753;DHT22;19121;52.428;10.816;2022-09-20T09:54:48;21.80;51.80
32753;DHT22;19121;52.428;10.816;2022-09-20T09:57:30;21.80;51.70
32753;DHT22;19121;52.428;10.816;2022-09-20T10:00:15;21.80;51.70
32753;DHT22;19121;52.428;10.816;2022-09-20T10:03:06;21.90;51.70
32753;DHT22;19121;52.428;10.816;2022-09-20T10:11:11;21.90;51.70
32753;DHT22;19121;52.428;10.816;2022-09-20T10:25:22;22.00;51.90
32753;DHT22;19121;52.428;10.816;2022-09-20T10:28:18;22.00;51.80
32753;DHT22;19121;52.428;10.816;2022-09-20T10:33:43;22.10;51.70
32753;DHT22;19121;52.428;10.816;2022-09-20T10:39:12;22.10;51.30
32753;DHT22;19121;52.428;10.816;2022-09-20T10:45:02;22.20;51.30
32753;DHT22;19121;52.428;10.816;2022-09-20T10:47:40;22.20;51.30
32753;DHT22;19121;52.428;10.816;2022-09-20T10:50:33;22.20;51.30
32753;DHT22;19121;52.428;10.816;2022-09-20T10:53:19;22.20;51.20
32753;DHT22;19121;52.428;10.816;2022-09-20T10:56:34;22.30;51.30
32753;DHT22;19121;52.428;10.816;2022-09-20T11:01:52;22.30;51.30
32753;DHT22;19121;52.428;10.816;2022-09-20T11:07:41;22.30;51.30
32753;DHT22;19121;52.428;10.816;2022-09-20T11:10:17;22.30;51.40
32753;DHT22;19121;52.428;10.816;2022-09-20T11:12:55;22.30;51.40
32753;DHT22;19121;52.428;10.816;2022-09-20T11:15:31;22.30;51.40
32753;DHT22;19121;52.428;10.816;2022-09-20T11:18:32;22.30;51.50
32753;DHT22;19121;52.428;10.816;2022-09-20T11:21:10;22.30;51.60
32753;DHT22;19121;52.428;10.816;2022-09-20T11:23:51;22.30;51.70
32753;DHT22;19121;52.428;10.816;2022-09-20T11:26:39;22.20;51.70
32753;DHT22;19121;52.428;10.816;2022-09-20T11:29:32;22.20;51.60
32753;DHT22;19121;52.428;10.816;2022-09-20T11:32:24;22.20;51.80
32753;DHT22;19121;52.428;10.816;2022-09-20T11:34:56;22.20;51.80
32753;DHT22;19121;52.428;10.816;2022-09-20T11:37:29;22.20;51.80
32753;DHT22;19121;52.428;10.816;2022-09-20T11:40:00;22.20;51.60
32753;DHT22;19121;52.428;10.816;2022-09-20T11:42:31;22.20;51.60
32753;DHT22;19121;52.428;10.816;2022-09-20T11:44:58;22.20;51.60
32753;DHT22;19121;52.428;10.816;2022-09-20T11:47:31;22.30;51.60
32753;DHT22;19121;52.428;10.816;2022-09-20T11:53:20;22.30;51.60
32753;DHT22;19121;52.428;10.816;2022-09-20T11:58:25;22.30;51.60
32753;DHT22;19121;52.428;10.816;2022-09-20T12:00:54;22.30;51.60
32753;DHT22;19121;52.428;10.816;2022-09-20T12:03:35;22.30;51.60
32753;DHT22;19121;52.428;10.816;2022-09-20T12:06:23;22.30;51.70
32753;DHT22;19121;52.428;10.816;2022-09-20T12:08:50;22.30;51.80
32753;DHT22;19121;52.428;10.816;2022-09-20T12:11:32;22.20;51.90
32753;DHT22;19121;52.428;10.816;2022-09-20T12:14:18;22.30;52.00
32753;DHT22;19121;52.428;10.816;2022-09-20T12:16:45;22.30;52.00
32753;DHT22;19121;52.428;10.816;2022-09-20T12:19:35;22.20;51.90
32753;DHT22;19121;52.428;10.816;2022-09-20T12:24:37;22.20;51.60
32753;DHT22;19121;52.428;10.816;2022-09-20T12:41:14;22.20;50.40
32753;DHT22;19121;52.428;10.816;2022-09-20T12:43:56;22.20;50.20
32753;DHT22;19121;52.428;10.816;2022-09-20T12:46:30;22.20;50.00
32753;DHT22;19121;52.428;10.816;2022-09-20T12:49:18;22.20;49.80
32753;DHT22;19121;52.428;10.816;2022-09-20T12:52:19;22.10;49.60
32753;DHT22;19121;52.428;10.816;2022-09-20T12:55:03;22.10;49.40
32753;DHT22;19121;52.428;10.816;2022-09-20T12:57:30;22.10;49.20
32753;DHT22;19121;52.428;10.816;2022-09-20T12:59:58;22.10;49.10
32753;DHT22;19121;52.428;10.816;2022-09-20T13:05:40;22.10;48.90
32753;DHT22;19121;52.428;10.816;2022-09-20T13:08:15;22.10;48.80
32753;DHT22;19121;52.428;10.816;2022-09-20T13:11:09;22.10;48.70
32753;DHT22;19121;52.428;10.816;2022-09-20T13:14:05;22.10;48.70
32753;DHT22;19121;52.428;10.816;2022-09-20T13:19:28;22.10;48.40
32753;DHT22;19121;52.428;10.816;2022-09-20T13:22:11;22.10;48.40
32753;DHT22;19121;52.428;10.816;2022-09-20T13:24:41;22.10;48.40
32753;DHT22;19121;52.428;10.816;2022-09-20T13:27:13;22.10;48.10
32753;DHT22;19121;52.428;10.816;2022-09-20T13:29:42;22.10;48.10
32753;DHT22;19121;52.428;10.816;2022-09-20T13:32:21;22.10;48.20
32753;DHT22;19121;52.428;10.816;2022-09-20T13:35:16;22.10;48.10
32753;DHT22;19121;52.428;10.816;2022-09-20T13:38:01;22.10;47.80
32753;DHT22;19121;52.428;10.816;2022-09-20T13:40:40;22.10;47.80
32753;DHT22;19121;52.428;10.816;2022-09-20T13:43:29;22.10;47.80
32753;DHT22;19121;52.428;10.816;2022-09-20T13:46:16;22.10;47.90
32753;DHT22;19121;52.428;10.816;2022-09-20T13:48:47;22.10;48.00
32753;DHT22;19121;52.428;10.816;2022-09-20T13:51:22;22.10;48.10
32753;DHT22;19121;52.428;10.816;2022-09-20T13:53:48;22.10;48.40
32753;DHT22;19121;52.428;10.816;2022-09-20T13:56:20;22.10;48.50
32753;DHT22;19121;52.428;10.816;2022-09-20T13:58:47;22.10;48.30
32753;DHT22;19121;52.428;10.816;2022-09-20T14:01:34;22.10;48.40
32753;DHT22;19121;52.428;10.816;2022-09-20T14:04:06;22.10;48.20
32753;DHT22;19121;52.428;10.816;2022-09-20T14:06:32;22.10;48.30
32753;DHT22;19121;52.428;10.816;2022-09-20T14:09:01;22.20;48.40
32753;DHT22;19121;52.428;10.816;2022-09-20T14:11:31;22.10;48.90
32753;DHT22;19121;52.428;10.816;2022-09-20T14:14:00;22.20;48.70
32753;DHT22;19121;52.428;10.816;2022-09-20T14:16:46;22.20;48.90
32753;DHT22;19121;52.428;10.816;2022-09-20T14:19:16;22.20;48.80
32753;DHT22;19121;52.428;10.816;2022-09-20T14:21:43;22.10;48.70
32753;DHT22;19121;52.428;10.816;2022-09-20T14:24:30;22.10;48.60
32753;DHT22;19121;52.428;10.816;2022-09-20T14:29:42;22.20;48.50
32753;DHT22;19121;52.428;10.816;2022-09-20T14:32:31;22.20;48.60
32753;DHT22;19121;52.428;10.816;2022-09-20T14:35:02;22.20;48.60
32753;DHT22;19121;52.428;10.816;2022-09-20T14:37:49;22.20;48.60
32753;DHT22;19121;52.428;10.816;2022-09-20T14:40:29;22.20;48.90
32753;DHT22;19121;52.428;10.816;2022-09-20T14:43:02;22.20;49.00
32753;DHT22;19121;52.428;10.816;2022-09-20T14:45:37;22.20;49.00
32753;DHT22;19121;52.428;10.816;2022-09-20T14:50:43;22.20;49.10
32753;DHT22;19121;52.428;10.816;2022-09-20T14:55:36;22.20;49.20
32753;DHT22;19121;52.428;10.816;2022-09-20T14:58:08;22.20;49.30
32753;DHT22;19121;52.428;10.816;2022-09-20T15:00:52;22.20;49.30
32753;DHT22;19121;52.428;10.816;2022-09-20T15:03:25;22.20;49.30
32753;DHT22;19121;52.428;10.816;2022-09-20T15:05:51;22.20;49.40
32753;DHT22;19121;52.428;10.816;2022-09-20T15:08:16;22.20;49.50
32753;DHT22;19121;52.428;10.816;2022-09-20T15:10:44;22.20;49.50
32753;DHT22;19121;52.428;10.816;2022-09-20T15:13:10;22.20;49.80
32753;DHT22;19121;52.428;10.816;2022-09-20T15:15:36;22.20;49.60
32753;DHT22;19121;52.428;10.816;2022-09-20T15:18:04;22.20;49.60
32753;DHT22;19121;52.428;10.816;2022-09-20T15:20:35;22.20;49.70
32753;DHT22;19121;52.428;10.816;2022-09-20T15:23:01;22.20;49.70
32753;DHT22;19121;52.428;10.816;2022-09-20T15:25:26;22.20;49.70
32753;DHT22;19121;52.428;10.816;2022-09-20T15:27:54;22.20;49.70
32753;DHT22;19121;52.428;10.816;2022-09-20T15:30:22;22.20;49.70
32753;DHT22;19121;52.428;10.816;2022-09-20T15:32:47;22.20;49.70
32753;DHT22;19121;52.428;10.816;2022-09-20T15:35:12;22.20;49.70
32753;DHT22;19121;52.428;10.816;2022-09-20T15:37:39;22.20;49.80
32753;DHT22;19121;52.428;10.816;2022-09-20T15:40:05;22.20;49.70
32753;DHT22;19121;52.428;10.816;2022-09-20T15:42:32;22.20;49.80
32753;DHT22;19121;52.428;10.816;2022-09-20T15:45:04;22.20;49.80
32753;DHT22;19121;52.428;10.816;2022-09-20T15:47:30;22.20;49.80
32753;DHT22;19121;52.428;10.816;2022-09-20T15:49:55;22.20;50.40
32753;DHT22;19121;52.428;10.816;2022-09-20T15:52:22;22.20;50.00
32753;DHT22;19121;52.428;10.816;2022-09-20T15:54:48;22.20;49.90
32753;DHT22;19121;52.428;10.816;2022-09-20T15:57:14;22.20;49.90
32753;DHT22;19121;52.428;10.816;2022-09-20T15:59:40;22.10;50.00
32753;DHT22;19121;52.428;10.816;2022-09-20T16:02:05;22.20;49.70
32753;DHT22;19121;52.428;10.816;2022-09-20T16:04:31;22.20;49.60
32753;DHT22;19121;52.428;10.816;2022-09-20T16:06:59;22.10;49.50
32753;DHT22;19121;52.428;10.816;2022-09-20T16:09:24;22.10;49.50
32753;DHT22;19121;52.428;10.816;2022-09-20T16:11:50;22.10;49.50
32753;DHT22;19121;52.428;10.816;2022-09-20T16:14:15;22.10;49.50
32753;DHT22;19121;52.428;10.816;2022-09-20T16:16:40;22.00;49.50
32753;DHT22;19121;52.428;10.816;2022-09-20T16:19:08;22.00;49.60
32753;DHT22;19121;52.428;10.816;2022-09-20T16:21:52;22.00;49.60
32753;DHT22;19121;52.428;10.816;2022-09-20T16:24:25;22.00;49.60
32753;DHT22;19121;52.428;10.816;2022-09-20T16:26:51;22.00;49.70
32753;DHT22;19121;52.428;10.816;2022-09-20T16:29:17;21.90;49.60
32753;DHT22;19121;52.428;10.816;2022-09-20T16:31:44;22.00;49.70
32753;DHT22;19121;52.428;10.816;2022-09-20T16:36:47;21.90;49.70
32753;DHT22;19121;52.428;10.816;2022-09-20T16:39:14;21.90;49.70
32753;DHT22;19121;52.428;10.816;2022-09-20T16:41:41;21.90;49.70
32753;DHT22;19121;52.428;10.816;2022-09-20T16:44:07;21.90;49.80
32753;DHT22;19121;52.428;10.816;2022-09-20T16:46:32;21.80;49.70
32753;DHT22;19121;52.428;10.816;2022-09-20T16:49:02;21.90;49.80
32753;DHT22;19121;52.428;10.816;2022-09-20T16:51:30;21.90;49.80
32753;DHT22;19121;52.428;10.816;2022-09-20T16:53:56;21.90;49.80
32753;DHT22;19121;52.428;10.816;2022-09-20T16:56:27;21.90;49.80
32753;DHT22;19121;52.428;10.816;2022-09-20T16:58:54;21.90;49.90
32753;DHT22;19121;52.428;10.816;2022-09-20T17:01:20;21.80;49.80
32753;DHT22;19121;52.428;10.816;2022-09-20T17:03:47;21.80;49.80
32753;DHT22;19121;52.428;10.816;2022-09-20T17:06:14;21.80;49.80
32753;DHT22;19121;52.428;10.816;2022-09-20T17:08:41;21.80;49.90
32753;DHT22;19121;52.428;10.816;2022-09-20T17:11:09;21.80;49.90
32753;DHT22;19121;52.428;10.816;2022-09-20T17:13:36;21.80;49.90
32753;DHT22;19121;52.428;10.816;2022-09-20T17:16:08;21.80;49.90
32753;DHT22;19121;52.428;10.816;2022-09-20T17:18:35;21.80;49.90
32753;DHT22;19121;52.428;10.816;2022-09-20T17:21:05;21.80;49.90
32753;DHT22;19121;52.428;10.816;2022-09-20T17:23:32;21.70;49.90
32753;DHT22;19121;52.428;10.816;2022-09-20T17:26:09;21.70;49.90
32753;DHT22;19121;52.428;10.816;2022-09-20T17:28:37;21.70;49.90
32753;DHT22;19121;52.428;10.816;2022-09-20T17:31:04;21.70;49.90
32753;DHT22;19121;52.428;10.816;2022-09-20T17:33:31;21.70;49.90
32753;DHT22;19121;52.428;10.816;2022-09-20T17:35:57;21.70;50.60
32753;DHT22;19121;52.428;10.816;2022-09-20T17:38:25;21.70;49.90
32753;DHT22;19121;52.428;10.816;2022-09-20T17:41:01;21.70;50.00
32753;DHT22;19121;52.428;10.816;2022-09-20T17:43:28;21.70;50.00
32753;DHT22;19121;52.428;10.816;2022-09-20T17:46:02;21.70;50.00
32753;DHT22;19121;52.428;10.816;2022-09-20T17:48:27;21.70;50.00
32753;DHT22;19121;52.428;10.816;2022-09-20T17:50:55;21.70;50.00
32753;DHT22;19121;52.428;10.816;2022-09-20T17:53:21;21.70;50.00
32753;DHT22;19121;52.428;10.816;2022-09-20T17:55:54;21.70;50.00
32753;DHT22;19121;52.428;10.816;2022-09-20T17:58:20;21.70;50.00
32753;DHT22;19121;52.428;10.816;2022-09-20T18:00:45;21.60;50.00
32753;DHT22;19121;52.428;10.816;2022-09-20T18:03:11;21.70;50.00
32753;DHT22;19121;52.428;10.816;2022-09-20T18:05:36;21.60;50.00
32753;DHT22;19121;52.428;10.816;2022-09-20T18:08:02;21.60;50.00
32753;DHT22;19121;52.428;10.816;2022-09-20T18:10:28;21.60;50.00
32753;DHT22;19121;52.428;10.816;2022-09-20T18:12:53;21.60;50.00
32753;DHT22;19121;52.428;10.816;2022-09-20T18:15:19;21.60;50.00
32753;DHT22;19121;52.428;10.816;2022-09-20T18:17:44;21.60;50.10
32753;DHT22;19121;52.428;10.816;2022-09-20T18:20:10;21.60;50.00
32753;DHT22;19121;52.428;10.816;2022-09-20T18:22:35;21.60;50.10
32753;DHT22;19121;52.428;10.816;2022-09-20T18:25:02;21.60;50.10
32753;DHT22;19121;52.428;10.816;2022-09-20T18:27:28;21.50;50.10
32753;DHT22;19121;52.428;10.816;2022-09-20T18:29:54;21.50;50.20
32753;DHT22;19121;52.428;10.816;2022-09-20T18:32:20;21.50;50.10
32753;DHT22;19121;52.428;10.816;2022-09-20T18:34:46;21.50;50.20
32753;DHT22;19121;52.428;10.816;2022-09-20T18:37:15;21.50;50.10
32753;DHT22;19121;52.428;10.816;2022-09-20T18:39:41;21.50;50.20
32753;DHT22;19121;52.428;10.816;2022-09-20T18:42:07;21.50;50.20
32753;DHT22;19121;52.428;10.816;2022-09-20T18:44:33;21.50;50.30
32753;DHT22;19121;52.428;10.816;2022-09-20T18:47:00;21.40;50.20
32753;DHT22;19121;52.428;10.816;2022-09-20T18:49:27;21.50;50.30
32753;DHT22;19121;52.428;10.816;2022-09-20T18:51:55;21.40;50.20
32753;DHT22;19121;52.428;10.816;2022-09-20T18:54:21;21.40;50.20
32753;DHT22;19121;52.428;10.816;2022-09-20T18:56:48;21.40;50.30